createdAt,value
2023-12-21T00:02:08.194Z,1.08
2023-12-21T00:04:35.311Z,1.08
2023-12-21T00:07:02.457Z,1.05
2023-12-21T00:09:29.309Z,1.03
2023-12-21T00:11:57.323Z,0.98
2023-12-21T00:14:28.525Z,0.96
2023-12-21T00:16:55.500Z,0.99
2023-12-21T00:19:22.472Z,0.93
2023-12-21T00:21:49.665Z,0.92
2023-12-21T00:24:16.629Z,0.91
2023-12-21T00:26:43.755Z,0.98
2023-12-21T00:29:10.951Z,0.95
2023-12-21T00:31:37.981Z,0.92
2023-12-21T00:34:05.026Z,0.91
2023-12-21T00:36:31.955Z,0.88
2023-12-21T00:38:59.008Z,0.82
2023-12-21T00:41:26.121Z,0.77
2023-12-21T00:43:53.265Z,0.74
2023-12-21T00:46:20.063Z,0.69
2023-12-21T00:48:46.951Z,0.69
2023-12-21T00:51:13.835Z,0.71
2023-12-21T00:53:40.616Z,0.72
2023-12-21T00:56:08.962Z,0.75
2023-12-21T00:58:35.924Z,0.68
2023-12-21T01:01:03.640Z,0.67
2023-12-21T01:03:30.744Z,0.68
2023-12-21T01:05:57.642Z,0.67
2023-12-21T01:08:24.456Z,0.68
2023-12-21T01:10:51.366Z,0.68
2023-12-21T01:13:18.302Z,0.68
2023-12-21T01:15:45.194Z,0.71
2023-12-21T01:18:12.046Z,0.69
2023-12-21T01:20:38.862Z,0.69
2023-12-21T01:23:05.719Z,0.71
2023-12-21T01:25:32.630Z,0.69
2023-12-21T01:27:59.703Z,0.62
2023-12-21T01:30:27.069Z,0.64
2023-12-21T01:32:54.765Z,0.65
2023-12-21T01:35:21.891Z,0.64
2023-12-21T01:37:49.232Z,0.64
2023-12-21T01:40:16.966Z,0.64
2023-12-21T01:42:44.376Z,0.61
2023-12-21T01:45:11.820Z,0.60
2023-12-21T01:47:38.873Z,0.56
2023-12-21T01:50:06.434Z,0.54
2023-12-21T01:52:33.449Z,0.51
2023-12-21T01:55:00.414Z,0.48
2023-12-21T01:57:27.418Z,0.44
2023-12-21T01:59:54.384Z,0.47
2023-12-21T02:02:21.579Z,0.43
2023-12-21T02:04:48.669Z,0.43
2023-12-21T02:07:16.043Z,0.44
2023-12-21T02:09:43.002Z,0.41
2023-12-21T02:12:10.024Z,0.44
2023-12-21T02:14:37.712Z,0.41
2023-12-21T02:17:06.307Z,0.34
2023-12-21T02:19:33.162Z,0.34
2023-12-21T02:22:03.055Z,0.29
2023-12-21T02:24:30.572Z,0.39
2023-12-21T02:26:57.472Z,0.36
2023-12-21T02:29:24.409Z,0.39
2023-12-21T02:31:51.385Z,0.39
2023-12-21T02:34:18.428Z,0.39
2023-12-21T02:36:45.547Z,0.37
2023-12-21T02:39:12.607Z,0.39
2023-12-21T02:41:39.446Z,0.43
2023-12-21T02:44:06.328Z,0.44
2023-12-21T02:46:33.521Z,0.41
2023-12-21T02:49:00.749Z,0.44
2023-12-21T02:51:27.690Z,0.47
2023-12-21T02:53:54.753Z,0.50
2023-12-21T02:56:21.597Z,0.54
2023-12-21T02:58:48.457Z,0.58
2023-12-21T03:01:15.267Z,0.61
2023-12-21T03:03:42.228Z,0.57
2023-12-21T03:06:09.053Z,0.54
2023-12-21T03:08:35.841Z,0.47
2023-12-21T03:11:02.902Z,0.39
2023-12-21T03:13:29.773Z,0.33
2023-12-21T03:15:56.543Z,0.36
2023-12-21T03:18:23.325Z,0.39
2023-12-21T03:20:50.160Z,0.43
2023-12-21T03:23:16.910Z,0.39
2023-12-21T03:25:43.878Z,0.40
2023-12-21T03:28:11.722Z,0.36
2023-12-21T03:30:39.022Z,0.31
2023-12-21T03:33:06.799Z,0.29
2023-12-21T03:35:33.739Z,0.26
2023-12-21T03:38:00.881Z,0.27
2023-12-21T03:40:28.245Z,0.27
2023-12-21T03:42:55.249Z,0.27
2023-12-21T03:45:22.243Z,0.31
2023-12-21T03:47:51.835Z,0.30
2023-12-21T03:50:19.050Z,0.27
2023-12-21T03:52:46.143Z,0.20
2023-12-21T03:55:13.274Z,0.16
2023-12-21T03:57:41.166Z,0.09
2023-12-21T04:00:09.989Z,0.09
2023-12-21T04:02:38.160Z,0.12
2023-12-21T04:05:05.543Z,0.12
2023-12-21T04:07:32.438Z,0.09
2023-12-21T04:09:59.411Z,0.10
2023-12-21T04:12:26.468Z,0.09
2023-12-21T04:14:53.280Z,0.09
2023-12-21T04:17:20.096Z,0.16
2023-12-21T04:19:46.946Z,0.14
2023-12-21T04:22:13.792Z,0.19
2023-12-21T04:24:41.813Z,0.17
2023-12-21T04:27:08.603Z,0.19
2023-12-21T04:29:35.655Z,0.17
2023-12-21T04:32:02.550Z,0.13
2023-12-21T04:34:29.365Z,0.13
2023-12-21T04:36:56.377Z,0.17
2023-12-21T04:39:24.049Z,0.20
2023-12-21T04:41:51.241Z,0.17
2023-12-21T04:44:18.356Z,0.20
2023-12-21T04:46:50.364Z,0.23
2023-12-21T04:49:19.153Z,0.24
2023-12-21T04:51:47.625Z,0.27
2023-12-21T04:54:14.808Z,0.26
2023-12-21T04:56:45.102Z,0.24
2023-12-21T04:59:12.109Z,0.23
2023-12-21T05:01:39.067Z,0.23
2023-12-21T05:04:07.649Z,0.21
2023-12-21T05:06:34.705Z,0.19
2023-12-21T05:09:01.519Z,0.24
2023-12-21T05:11:28.995Z,0.23
2023-12-21T05:13:56.472Z,0.20
2023-12-21T05:16:25.927Z,0.17
2023-12-21T05:18:52.826Z,0.14
2023-12-21T05:21:19.789Z,0.13
2023-12-21T05:23:46.701Z,0.09
2023-12-21T05:26:14.190Z,0.13
2023-12-21T05:28:43.910Z,0.12
2023-12-21T05:31:11.668Z,0.14
2023-12-21T05:33:38.601Z,0.13
2023-12-21T05:36:05.725Z,0.10
2023-12-21T05:38:32.557Z,0.10
2023-12-21T05:40:59.444Z,0.12
2023-12-21T05:43:31.429Z,0.10
2023-12-21T05:45:58.512Z,0.13
2023-12-21T05:48:25.530Z,0.19
2023-12-21T05:50:52.828Z,0.23
2023-12-21T05:53:19.768Z,0.20
2023-12-21T05:55:46.779Z,0.14
2023-12-21T05:58:13.735Z,0.16
2023-12-21T06:00:40.836Z,0.21
2023-12-21T06:03:08.083Z,0.21
2023-12-21T06:05:34.994Z,0.27
2023-12-21T06:08:01.858Z,0.41
2023-12-21T06:10:28.828Z,0.64
2023-12-21T06:12:55.797Z,1.02
2023-12-21T06:15:23.031Z,1.29
2023-12-21T06:17:50.236Z,1.57
2023-12-21T06:20:17.323Z,2.13
2023-12-21T06:22:44.366Z,2.73
2023-12-21T06:25:12.788Z,3.39
2023-12-21T06:27:39.733Z,4.05
2023-12-21T06:30:07.357Z,4.45
2023-12-21T06:32:34.307Z,5.11
2023-12-21T06:35:01.337Z,5.72
2023-12-21T06:37:28.193Z,6.29
2023-12-21T06:39:56.001Z,6.95
2023-12-21T06:42:23.186Z,7.35
2023-12-21T06:44:50.023Z,7.71
2023-12-21T06:47:16.942Z,8.12
2023-12-21T06:49:43.761Z,8.52
2023-12-21T06:52:10.712Z,8.72
2023-12-21T06:54:37.723Z,9.10
2023-12-21T06:57:04.854Z,9.43
2023-12-21T06:59:31.758Z,9.74
2023-12-21T07:01:58.941Z,10.02
2023-12-21T07:04:25.935Z,10.34
2023-12-21T07:06:52.862Z,10.84
2023-12-21T07:09:20.974Z,11.14
2023-12-21T07:11:49.307Z,10.98
2023-12-21T07:14:16.708Z,11.11
2023-12-21T07:16:43.692Z,11.47
2023-12-21T07:19:10.614Z,11.69
2023-12-21T07:21:37.479Z,11.99
2023-12-21T07:24:04.575Z,12.53
2023-12-21T07:26:32.370Z,13.04
2023-12-21T07:28:59.191Z,13.42
2023-12-21T07:31:26.110Z,13.82
2023-12-21T07:33:53.061Z,14.03
2023-12-21T07:36:19.940Z,13.73
2023-12-21T07:38:46.917Z,13.65
2023-12-21T07:41:14.797Z,13.76
2023-12-21T07:43:42.917Z,13.49
2023-12-21T07:46:10.120Z,14.00
2023-12-21T07:48:37.156Z,14.72
2023-12-21T07:51:04.261Z,15.09
2023-12-21T07:53:31.108Z,15.39
2023-12-21T07:55:58.113Z,15.68
2023-12-21T07:58:24.975Z,15.98
2023-12-21T08:00:51.924Z,15.72
2023-12-21T08:03:22.472Z,15.23
2023-12-21T08:05:49.417Z,14.98
2023-12-21T08:08:16.306Z,15.12
2023-12-21T08:10:43.742Z,15.27
2023-12-21T08:13:10.973Z,15.03
2023-12-21T08:15:37.887Z,14.72
2023-12-21T08:18:06.029Z,14.58
2023-12-21T08:20:34.491Z,14.28
2023-12-21T08:23:04.582Z,14.67
2023-12-21T08:25:33.151Z,14.86
2023-12-21T08:28:00.218Z,14.93
2023-12-21T08:30:27.253Z,14.83
2023-12-21T08:32:54.207Z,14.98
2023-12-21T08:35:21.062Z,15.00
2023-12-21T08:37:48.041Z,15.50
2023-12-21T08:40:16.068Z,16.19
2023-12-21T08:42:43.070Z,16.13
2023-12-21T08:45:10.869Z,16.10
2023-12-21T08:47:42.781Z,15.82
2023-12-21T08:50:13.409Z,16.15
2023-12-21T08:52:40.910Z,16.59
2023-12-21T08:55:09.024Z,16.53
2023-12-21T08:57:39.201Z,15.98
2023-12-21T09:00:07.723Z,15.75
2023-12-21T09:02:36.040Z,15.84
2023-12-21T09:05:03.771Z,15.82
2023-12-21T09:07:31.092Z,15.61
2023-12-21T09:09:58.718Z,15.81
2023-12-21T09:12:25.626Z,15.84
2023-12-21T09:14:52.520Z,15.74
2023-12-21T09:17:19.865Z,15.65
2023-12-21T09:19:47.439Z,15.65
2023-12-21T09:22:14.246Z,15.64
2023-12-21T09:24:41.115Z,15.71
2023-12-21T09:27:07.964Z,15.70
2023-12-21T09:29:34.753Z,15.60
2023-12-21T09:32:01.665Z,15.49
2023-12-21T09:34:29.176Z,15.53
2023-12-21T09:36:56.108Z,15.46
2023-12-21T09:39:22.940Z,15.29
2023-12-21T09:42:00.024Z,15.20
2023-12-21T09:44:30.301Z,15.14
2023-12-21T09:46:57.477Z,14.91
2023-12-21T09:49:24.642Z,14.72
2023-12-21T09:51:51.711Z,14.61
2023-12-21T09:54:18.909Z,14.60
2023-12-21T09:56:47.071Z,14.51
2023-12-21T09:59:14.293Z,14.41
2023-12-21T10:01:43.024Z,14.26
2023-12-21T10:04:14.532Z,14.37
2023-12-21T10:06:41.474Z,14.41
2023-12-21T10:09:09.609Z,14.44
2023-12-21T10:11:36.686Z,14.47
2023-12-21T10:14:05.251Z,14.51
2023-12-21T10:16:32.417Z,14.27
2023-12-21T10:18:59.357Z,14.14
2023-12-21T10:21:26.282Z,14.10
2023-12-21T10:23:54.385Z,14.13
2023-12-21T10:26:21.175Z,14.12
2023-12-21T10:28:48.765Z,14.18
2023-12-21T10:31:17.816Z,14.16
2023-12-21T10:33:44.838Z,14.17
2023-12-21T10:36:11.877Z,14.27
2023-12-21T10:38:38.744Z,14.30
2023-12-21T10:41:07.291Z,14.31
2023-12-21T10:43:35.849Z,14.33
2023-12-21T10:46:04.081Z,14.34
2023-12-21T10:48:33.606Z,14.37
2023-12-21T10:51:00.478Z,14.23
2023-12-21T10:53:27.525Z,14.28
2023-12-21T10:55:55.385Z,14.37
2023-12-21T10:58:23.131Z,14.45
2023-12-21T11:00:50.939Z,14.55
2023-12-21T11:03:18.635Z,14.51
2023-12-21T11:05:46.317Z,14.42
2023-12-21T11:08:13.410Z,14.33
2023-12-21T11:10:40.418Z,14.33
2023-12-21T11:13:07.565Z,14.33
2023-12-21T11:15:34.473Z,14.23
2023-12-21T11:18:04.783Z,14.31
2023-12-21T11:20:42.218Z,14.41
2023-12-21T11:23:13.760Z,14.54
2023-12-21T11:25:40.830Z,14.41
2023-12-21T11:28:09.999Z,14.20
2023-12-21T11:30:37.238Z,14.07
2023-12-21T11:33:08.475Z,14.05
2023-12-21T11:35:35.584Z,13.97
2023-12-21T11:38:09.250Z,13.90
2023-12-21T11:40:36.681Z,13.87
2023-12-21T11:43:07.210Z,13.80
2023-12-21T11:45:35.404Z,13.85
2023-12-21T11:48:05.369Z,13.82
2023-12-21T11:50:35.228Z,14.09
2023-12-21T11:53:14.812Z,14.21
2023-12-21T11:55:44.786Z,14.23
2023-12-21T11:58:26.770Z,14.35
2023-12-21T12:00:55.810Z,14.44
2023-12-21T12:03:23.887Z,14.48
2023-12-21T12:05:54.528Z,14.63
2023-12-21T12:08:24.760Z,14.75
2023-12-21T12:10:52.578Z,14.89
2023-12-21T12:13:25.295Z,15.02
2023-12-21T12:15:53.843Z,15.06
2023-12-21T12:18:21.168Z,14.92
2023-12-21T12:20:51.657Z,14.72
2023-12-21T12:23:19.102Z,14.68
2023-12-21T12:25:49.768Z,14.68
2023-12-21T12:28:18.943Z,14.60
2023-12-21T12:30:46.566Z,14.69
2023-12-21T12:33:13.911Z,14.86
2023-12-21T12:35:41.779Z,15.02
2023-12-21T12:38:09.021Z,15.43
2023-12-21T12:40:36.343Z,15.87
2023-12-21T12:43:05.341Z,16.10
2023-12-21T12:45:34.959Z,16.37
2023-12-21T12:48:02.304Z,16.77
2023-12-21T12:50:29.163Z,17.65
2023-12-21T12:52:56.142Z,18.15
2023-12-21T12:55:24.707Z,18.60
2023-12-21T12:57:56.800Z,18.87
2023-12-21T13:00:25.005Z,18.72
2023-12-21T13:02:51.802Z,18.67
2023-12-21T13:05:20.080Z,18.24
2023-12-21T13:07:47.540Z,17.80
2023-12-21T13:10:15.525Z,17.15
2023-12-21T13:12:43.981Z,16.15
2023-12-21T13:15:14.313Z,15.24
2023-12-21T13:17:41.802Z,14.42
2023-12-21T13:20:11.204Z,13.61
2023-12-21T13:22:38.503Z,12.99
2023-12-21T13:25:07.464Z,12.56
2023-12-21T13:27:35.345Z,12.11
2023-12-21T13:30:02.749Z,11.76
2023-12-21T13:32:29.935Z,11.47
2023-12-21T13:34:57.214Z,11.22
2023-12-21T13:37:24.137Z,10.94
2023-12-21T13:39:51.139Z,10.72
2023-12-21T13:42:18.050Z,10.49
2023-12-21T13:44:45.020Z,10.37
2023-12-21T13:47:11.946Z,10.26
2023-12-21T13:49:39.203Z,10.17
2023-12-21T13:52:06.623Z,10.05
2023-12-21T13:54:33.763Z,9.91
2023-12-21T13:57:10.742Z,9.71
2023-12-21T13:59:42.622Z,9.58
2023-12-21T14:02:10.192Z,9.41
2023-12-21T14:04:38.774Z,9.30
2023-12-21T14:07:06.467Z,9.17
2023-12-21T14:09:34.444Z,9.08
2023-12-21T14:14:33.547Z,8.96
2023-12-21T14:17:00.548Z,8.82
2023-12-21T14:19:27.506Z,8.72
2023-12-21T14:21:54.597Z,8.57
2023-12-21T14:24:21.848Z,8.45
2023-12-21T14:26:50.567Z,8.40
2023-12-21T14:29:17.467Z,8.30
2023-12-21T14:31:45.574Z,8.21
2023-12-21T14:34:13.557Z,8.14
2023-12-21T14:36:40.612Z,8.03
2023-12-21T14:39:07.736Z,8.02
2023-12-21T14:41:38.030Z,7.93
2023-12-21T14:44:06.067Z,7.85
2023-12-21T14:46:33.137Z,7.73
2023-12-21T14:49:00.090Z,7.62
2023-12-21T14:51:26.946Z,7.56
2023-12-21T14:53:53.939Z,7.47
2023-12-21T14:56:20.870Z,7.40
2023-12-21T14:58:47.749Z,7.31
2023-12-21T15:01:14.760Z,7.20
2023-12-21T15:03:41.886Z,7.10
2023-12-21T15:06:08.898Z,6.97
2023-12-21T15:08:35.738Z,6.86
2023-12-21T15:11:02.992Z,6.76
2023-12-21T15:13:30.417Z,6.71
2023-12-21T15:15:57.625Z,6.59
2023-12-21T15:18:24.720Z,6.46
2023-12-21T15:20:51.657Z,6.32
2023-12-21T15:23:18.508Z,6.24
2023-12-21T15:25:45.573Z,6.09
2023-12-21T15:28:13.404Z,5.94
2023-12-21T15:30:40.499Z,5.81
2023-12-21T15:33:07.379Z,5.70
2023-12-21T15:35:34.533Z,5.67
2023-12-21T15:38:04.468Z,5.60
2023-12-21T15:40:31.420Z,5.59
2023-12-21T15:42:58.442Z,5.49
2023-12-21T15:45:25.440Z,5.36
2023-12-21T15:47:52.414Z,5.30
2023-12-21T15:50:19.464Z,5.18
2023-12-21T15:52:46.638Z,5.10
2023-12-21T15:55:14.914Z,4.98
2023-12-21T15:57:41.912Z,4.94
2023-12-21T16:00:11.495Z,4.90
2023-12-21T16:02:38.567Z,4.83
2023-12-21T16:05:06.117Z,4.80
2023-12-21T16:07:33.072Z,4.73
2023-12-21T16:09:59.919Z,4.69
2023-12-21T16:12:27.358Z,4.72
2023-12-21T16:14:54.166Z,4.65
2023-12-21T16:17:23.496Z,4.62
2023-12-21T16:19:51.450Z,4.59
2023-12-21T16:22:20.758Z,4.57
2023-12-21T16:24:47.933Z,4.53
2023-12-21T16:27:14.877Z,4.45
2023-12-21T16:29:42.412Z,4.39
2023-12-21T16:32:10.511Z,4.29
2023-12-21T16:34:40.273Z,4.28
2023-12-21T16:37:07.770Z,4.19
2023-12-21T16:39:34.991Z,4.15
2023-12-21T16:42:02.025Z,4.05
2023-12-21T16:44:29.027Z,3.95
2023-12-21T16:46:56.036Z,3.91
2023-12-21T16:49:23.686Z,3.93
2023-12-21T16:51:50.744Z,3.93
2023-12-21T16:54:17.629Z,3.87
2023-12-21T16:56:44.892Z,3.87
2023-12-21T16:59:12.047Z,3.80
2023-12-21T17:01:38.978Z,3.80
2023-12-21T17:04:06.023Z,3.73
2023-12-21T17:06:32.944Z,3.66
2023-12-21T17:09:00.334Z,3.62
2023-12-21T17:11:27.162Z,3.60
2023-12-21T17:13:54.130Z,3.53
2023-12-21T17:16:24.440Z,3.44
2023-12-21T17:18:52.138Z,3.38
2023-12-21T17:21:19.131Z,3.30
2023-12-21T17:23:47.123Z,3.19
2023-12-21T17:26:13.918Z,3.16
2023-12-21T17:28:41.829Z,3.18
2023-12-21T17:31:08.919Z,3.15
2023-12-21T17:33:38.632Z,3.13
2023-12-21T17:36:05.679Z,3.13
2023-12-21T17:38:32.515Z,3.13
2023-12-21T17:40:59.433Z,3.15
2023-12-21T17:43:27.017Z,3.18
2023-12-21T17:45:53.898Z,3.21
2023-12-21T17:48:20.827Z,3.25
2023-12-21T17:50:47.786Z,3.29
2023-12-21T17:53:14.635Z,3.33
2023-12-21T17:55:43.398Z,3.40
2023-12-21T17:58:10.321Z,3.42
2023-12-21T18:00:37.239Z,3.42
2023-12-21T18:03:05.131Z,3.35
2023-12-21T18:05:32.047Z,3.36
2023-12-21T18:07:59.433Z,3.36
2023-12-21T18:10:26.418Z,3.33
2023-12-21T18:12:53.356Z,3.26
2023-12-21T18:15:20.364Z,3.18
2023-12-21T18:17:47.821Z,3.04
2023-12-21T18:20:18.361Z,2.90
2023-12-21T18:22:45.528Z,2.83
2023-12-21T18:25:12.527Z,2.71
2023-12-21T18:27:39.861Z,2.67
2023-12-21T18:30:07.614Z,2.61
2023-12-21T18:32:34.746Z,2.57
2023-12-21T18:35:01.821Z,2.52
2023-12-21T18:37:28.864Z,2.43
2023-12-21T18:39:56.322Z,2.34
2023-12-21T18:42:23.256Z,2.33
2023-12-21T18:44:50.172Z,2.26
2023-12-21T18:47:18.454Z,2.25
2023-12-21T18:49:46.307Z,2.23
2023-12-21T18:52:13.431Z,2.28
2023-12-21T18:54:41.539Z,2.29
2023-12-21T18:57:08.623Z,2.26
2023-12-21T18:59:35.775Z,2.26
2023-12-21T19:02:02.756Z,2.26
2023-12-21T19:04:29.696Z,2.21
2023-12-21T19:06:56.760Z,2.19
2023-12-21T19:09:23.757Z,2.15
2023-12-21T19:11:50.691Z,2.12
2023-12-21T19:14:18.473Z,2.11
2023-12-21T19:16:45.717Z,2.06
2023-12-21T19:19:12.916Z,2.08
2023-12-21T19:21:46.056Z,2.06
2023-12-21T19:24:13.067Z,2.01
2023-12-21T19:26:39.889Z,1.98
2023-12-21T19:29:07.104Z,1.88
2023-12-21T19:31:34.136Z,1.84
2023-12-21T19:34:01.144Z,1.77
2023-12-21T19:36:28.197Z,1.73
2023-12-21T19:38:55.290Z,1.75
2023-12-21T19:41:22.392Z,1.71
2023-12-21T19:43:49.410Z,1.64
2023-12-21T19:46:18.555Z,1.60
2023-12-21T19:48:45.408Z,1.56
2023-12-21T19:51:12.563Z,1.48
2023-12-21T19:53:40.423Z,1.44
2023-12-21T19:56:08.808Z,1.42
2023-12-21T19:58:36.216Z,1.39
2023-12-21T20:01:03.458Z,1.35
2023-12-21T20:03:30.437Z,1.30
2023-12-21T20:05:57.748Z,1.27
2023-12-21T20:08:24.736Z,1.26
2023-12-21T20:10:51.697Z,1.23
2023-12-21T20:13:18.944Z,1.22
2023-12-21T20:15:45.989Z,1.25
2023-12-21T20:18:13.011Z,1.25
2023-12-21T20:20:39.923Z,1.26
2023-12-21T20:23:09.522Z,1.30
2023-12-21T20:25:37.095Z,1.32
2023-12-21T20:28:08.926Z,1.27
2023-12-21T20:30:36.969Z,1.27
2023-12-21T20:33:05.262Z,1.25
2023-12-21T20:35:33.312Z,1.22
2023-12-21T20:38:00.431Z,1.17
2023-12-21T20:40:27.463Z,1.17
2023-12-21T20:42:55.284Z,1.15
2023-12-21T20:45:22.138Z,1.12
2023-12-21T20:47:49.298Z,1.08
2023-12-21T20:50:18.761Z,1.02
2023-12-21T20:52:46.118Z,0.99
2023-12-21T20:55:15.513Z,0.99
2023-12-21T20:57:42.648Z,0.99
2023-12-21T21:00:10.616Z,0.96
2023-12-21T21:02:37.485Z,0.92
2023-12-21T21:05:05.512Z,0.96
2023-12-21T21:07:33.009Z,1.00
2023-12-21T21:10:00.235Z,0.93
2023-12-21T21:12:27.194Z,0.93
2023-12-21T21:14:54.399Z,0.93
2023-12-21T21:17:25.116Z,0.87
2023-12-21T21:19:52.820Z,0.85
2023-12-21T21:22:20.166Z,0.82
2023-12-21T21:24:47.764Z,0.79
2023-12-21T21:27:14.611Z,0.81
2023-12-21T21:29:41.457Z,0.81
2023-12-21T21:32:08.553Z,0.82
2023-12-21T21:34:36.975Z,0.84
2023-12-21T21:37:04.640Z,0.82
2023-12-21T21:39:32.270Z,0.79
2023-12-21T21:41:59.950Z,0.79
2023-12-21T21:44:31.223Z,0.79
2023-12-21T21:46:58.119Z,0.77
2023-12-21T21:49:25.261Z,0.72
2023-12-21T21:51:52.256Z,0.68
2023-12-21T21:54:19.111Z,0.65
2023-12-21T21:56:45.923Z,0.58
2023-12-21T21:59:14.050Z,0.53
2023-12-21T22:01:44.752Z,0.50
2023-12-21T22:04:11.692Z,0.47
2023-12-21T22:06:38.712Z,0.47
2023-12-21T22:09:05.973Z,0.46
2023-12-21T22:11:33.694Z,0.50
2023-12-21T22:14:01.226Z,0.53
2023-12-21T22:16:28.273Z,0.47
2023-12-21T22:18:55.895Z,0.46
2023-12-21T22:21:23.015Z,0.41
2023-12-21T22:23:49.856Z,0.41
2023-12-21T22:26:20.809Z,0.43
2023-12-21T22:28:48.181Z,0.44
2023-12-21T22:31:15.216Z,0.43
2023-12-21T22:33:42.152Z,0.43
2023-12-21T22:36:09.963Z,0.37
2023-12-21T22:38:37.181Z,0.40
2023-12-21T22:41:05.275Z,0.39
2023-12-21T22:43:41.679Z,0.33
2023-12-21T22:46:09.873Z,0.30
2023-12-21T22:48:37.101Z,0.24
2023-12-21T22:51:04.211Z,0.19
2023-12-21T22:53:32.259Z,0.17
2023-12-21T22:55:59.096Z,0.03
2023-12-21T22:58:26.373Z,-0.04
2023-12-21T23:00:53.266Z,-0.05
2023-12-21T23:03:20.203Z,-0.02
2023-12-21T23:05:47.269Z,-0.01
2023-12-21T23:08:14.083Z,-0.02
2023-12-21T23:10:44.496Z,-0.07
2023-12-21T23:13:18.661Z,-0.12
2023-12-21T23:15:46.247Z,-0.12
2023-12-21T23:18:13.530Z,-0.15
2023-12-21T23:20:40.564Z,-0.14
2023-12-21T23:23:07.729Z,-0.18
2023-12-21T23:25:34.883Z,-0.22
2023-12-21T23:28:02.091Z,-0.28
2023-12-21T23:30:29.030Z,-0.26
2023-12-21T23:32:55.973Z,-0.30
2023-12-21T23:35:23.842Z,-0.29
2023-12-21T23:37:51.589Z,-0.30
2023-12-21T23:40:19.145Z,-0.32
2023-12-21T23:42:46.587Z,-0.38
2023-12-21T23:45:13.815Z,-0.45
2023-12-21T23:47:41.075Z,-0.40
2023-12-21T23:50:09.102Z,-0.36
2023-12-21T23:52:36.508Z,-0.33
2023-12-21T23:55:03.505Z,-0.38
2023-12-21T23:57:30.821Z,-0.40
2023-12-21T23:59:57.758Z,-0.38
